createdAt,value
2023-04-26T00:00:34.243Z,90.21
2023-04-26T00:02:06.437Z,89.93
2023-04-26T00:03:41.186Z,89.76
2023-04-26T00:05:14.801Z,89.72
2023-04-26T00:06:47.256Z,89.69
2023-04-26T00:08:19.463Z,89.93
2023-04-26T00:09:53.192Z,90.13
2023-04-26T00:11:25.190Z,90.34
2023-04-26T00:12:57.189Z,90.59
2023-04-26T00:14:29.282Z,90.52
2023-04-26T00:16:01.482Z,90.67
2023-04-26T00:17:33.865Z,90.99
2023-04-26T00:19:05.929Z,90.90
2023-04-26T00:20:38.035Z,91.05
2023-04-26T00:22:10.413Z,90.78
2023-04-26T00:23:43.583Z,90.70
2023-04-26T00:25:15.902Z,90.20
2023-04-26T00:26:48.037Z,90.61
2023-04-26T00:28:20.254Z,90.26
2023-04-26T00:29:52.314Z,89.84
2023-04-26T00:31:24.406Z,89.95
2023-04-26T00:32:56.572Z,89.73
2023-04-26T00:34:38.290Z,89.80
2023-04-26T00:36:11.124Z,89.77
2023-04-26T00:37:43.324Z,89.68
2023-04-26T00:39:15.461Z,89.36
2023-04-26T00:40:47.716Z,89.59
2023-04-26T00:42:19.943Z,89.61
2023-04-26T00:43:52.185Z,89.74
2023-04-26T00:45:24.464Z,89.81
2023-04-26T00:46:56.645Z,89.90
2023-04-26T00:48:28.808Z,90.21
2023-04-26T00:50:01.869Z,90.18
2023-04-26T00:51:33.963Z,90.06
2023-04-26T00:53:06.608Z,89.88
2023-04-26T00:54:39.170Z,90.03
2023-04-26T00:56:12.182Z,90.50
2023-04-26T00:57:46.300Z,90.85
2023-04-26T00:59:18.855Z,90.60
2023-04-26T01:00:52.228Z,90.89
2023-04-26T01:02:24.642Z,91.09
2023-04-26T01:03:57.595Z,91.23
2023-04-26T01:05:29.851Z,90.98
2023-04-26T01:07:03.254Z,90.90
2023-04-26T01:08:35.224Z,90.51
2023-04-26T01:10:09.808Z,90.94
2023-04-26T01:11:43.833Z,90.79
2023-04-26T01:13:16.594Z,90.78
2023-04-26T01:14:49.107Z,90.66
2023-04-26T01:16:21.517Z,90.93
2023-04-26T01:17:53.814Z,90.96
2023-04-26T01:19:26.074Z,91.09
2023-04-26T01:20:58.164Z,90.75
2023-04-26T01:22:34.095Z,90.57
2023-04-26T01:24:07.233Z,90.33
2023-04-26T01:25:39.623Z,90.34
2023-04-26T01:27:11.708Z,90.52
2023-04-26T01:28:43.831Z,90.54
2023-04-26T01:31:48.288Z,90.20
2023-04-26T01:33:20.324Z,90.15
2023-04-26T01:34:52.484Z,90.04
2023-04-26T01:36:24.537Z,90.21
2023-04-26T01:37:56.638Z,90.62
2023-04-26T01:39:28.884Z,90.72
2023-04-26T01:41:00.984Z,90.43
2023-04-26T01:42:33.302Z,90.18
2023-04-26T01:44:05.567Z,90.18
2023-04-26T01:45:37.714Z,90.07
2023-04-26T01:47:09.794Z,90.07
2023-04-26T01:48:42.050Z,90.29
2023-04-26T01:50:14.156Z,90.31
2023-04-26T01:51:46.293Z,90.47
2023-04-26T01:53:18.464Z,90.30
2023-04-26T01:54:53.134Z,90.13
2023-04-26T01:56:25.474Z,90.17
2023-04-26T01:57:57.805Z,90.22
2023-04-26T01:59:29.954Z,90.24
2023-04-26T02:01:07.059Z,90.21
2023-04-26T02:02:39.219Z,90.54
2023-04-26T02:04:11.482Z,90.02
2023-04-26T02:05:43.599Z,90.02
2023-04-26T02:07:15.829Z,90.17
2023-04-26T02:08:48.062Z,90.21
2023-04-26T02:10:20.130Z,90.10
2023-04-26T02:11:52.286Z,90.33
2023-04-26T02:13:25.080Z,90.25
2023-04-26T02:14:57.217Z,90.32
2023-04-26T02:16:29.537Z,90.26
2023-04-26T02:18:01.781Z,90.36
2023-04-26T02:19:33.883Z,90.69
2023-04-26T02:21:09.525Z,90.39
2023-04-26T02:22:41.746Z,90.21
2023-04-26T02:24:13.829Z,90.15
2023-04-26T02:25:50.536Z,90.38
2023-04-26T02:27:22.671Z,90.49
2023-04-26T02:28:54.942Z,90.30
2023-04-26T02:30:29.943Z,90.41
2023-04-26T02:32:02.029Z,90.69
2023-04-26T02:33:34.291Z,90.72
2023-04-26T02:35:07.126Z,90.74
2023-04-26T02:36:39.193Z,90.72
2023-04-26T02:38:11.437Z,90.56
2023-04-26T02:39:43.462Z,90.23
2023-04-26T02:41:17.769Z,89.77
2023-04-26T02:42:49.780Z,89.28
2023-04-26T02:44:21.955Z,89.40
2023-04-26T02:45:54.146Z,89.23
2023-04-26T02:47:27.009Z,88.96
2023-04-26T02:48:59.311Z,89.03
2023-04-26T02:50:31.449Z,89.52
2023-04-26T02:52:03.684Z,89.41
2023-04-26T02:53:35.908Z,89.82
2023-04-26T02:55:08.689Z,90.12
2023-04-26T02:56:41.049Z,89.82
2023-04-26T02:58:13.499Z,89.83
2023-04-26T02:59:45.564Z,89.42
2023-04-26T03:01:19.138Z,89.25
2023-04-26T03:02:51.572Z,89.12
2023-04-26T03:04:23.868Z,89.40
2023-04-26T03:05:56.017Z,89.17
2023-04-26T03:07:28.067Z,89.34
2023-04-26T03:10:34.083Z,89.87
2023-04-26T03:12:07.467Z,89.91
2023-04-26T03:13:39.385Z,89.07
2023-04-26T03:15:11.483Z,89.06
2023-04-26T03:16:44.063Z,89.15
2023-04-26T03:18:16.262Z,89.53
2023-04-26T03:19:48.374Z,89.92
2023-04-26T03:21:21.488Z,90.06
2023-04-26T03:22:53.699Z,89.94
2023-04-26T03:24:27.141Z,89.75
2023-04-26T03:25:59.294Z,89.67
2023-04-26T03:27:31.648Z,89.83
2023-04-26T03:29:04.079Z,89.85
2023-04-26T03:30:36.254Z,89.85
2023-04-26T03:32:08.463Z,89.80
2023-04-26T03:33:40.841Z,89.64
2023-04-26T03:35:13.097Z,89.56
2023-04-26T03:36:45.198Z,89.47
2023-04-26T03:38:17.745Z,89.21
2023-04-26T03:39:51.070Z,89.39
2023-04-26T03:41:23.635Z,89.48
2023-04-26T03:42:55.762Z,90.50
2023-04-26T03:44:29.286Z,90.84
2023-04-26T03:46:03.150Z,91.16
2023-04-26T03:47:35.360Z,91.33
2023-04-26T03:49:07.711Z,91.21
2023-04-26T03:50:39.998Z,91.24
2023-04-26T03:52:12.075Z,91.54
2023-04-26T03:53:44.218Z,91.51
2023-04-26T03:55:16.400Z,91.12
2023-04-26T03:56:48.498Z,91.13
2023-04-26T03:58:20.723Z,90.42
2023-04-26T03:59:52.848Z,89.68
2023-04-26T04:01:25.058Z,89.35
2023-04-26T04:02:57.257Z,89.24
2023-04-26T04:04:29.641Z,89.31
2023-04-26T04:06:02.181Z,89.30
2023-04-26T04:07:35.131Z,89.70
2023-04-26T04:09:07.339Z,89.75
2023-04-26T04:10:39.473Z,89.96
2023-04-26T04:12:11.566Z,89.89
2023-04-26T04:13:43.721Z,89.66
2023-04-26T04:15:17.463Z,90.06
2023-04-26T04:16:49.594Z,90.03
2023-04-26T04:18:21.712Z,90.27
2023-04-26T04:19:53.839Z,90.40
2023-04-26T04:21:26.175Z,90.68
2023-04-26T04:22:59.235Z,90.36
2023-04-26T04:24:34.498Z,90.36
2023-04-26T04:26:06.820Z,90.14
2023-04-26T04:27:39.048Z,90.05
2023-04-26T04:29:11.724Z,90.37
2023-04-26T04:30:47.668Z,90.49
2023-04-26T04:32:20.457Z,90.91
2023-04-26T04:33:52.551Z,91.28
2023-04-26T04:35:28.770Z,91.63
2023-04-26T04:37:00.832Z,91.80
2023-04-26T04:38:33.441Z,91.84
2023-04-26T04:40:06.217Z,91.82
2023-04-26T04:41:38.580Z,91.89
2023-04-26T04:43:10.973Z,92.47
2023-04-26T04:44:43.452Z,92.24
2023-04-26T04:46:15.911Z,92.60
2023-04-26T04:47:48.287Z,93.05
2023-04-26T04:49:20.528Z,93.65
2023-04-26T04:50:53.180Z,93.62
2023-04-26T04:52:25.334Z,94.04
2023-04-26T04:53:58.185Z,93.87
2023-04-26T04:55:30.307Z,93.75
2023-04-26T04:57:03.323Z,93.74
2023-04-26T04:58:35.441Z,93.81
2023-04-26T05:00:10.854Z,93.49
2023-04-26T05:01:43.079Z,93.53
2023-04-26T05:03:19.003Z,93.16
2023-04-26T05:04:51.491Z,92.83
2023-04-26T05:06:23.700Z,92.55
2023-04-26T05:07:56.005Z,92.50
2023-04-26T05:09:28.213Z,92.47
2023-04-26T05:11:00.324Z,92.66
2023-04-26T05:12:32.495Z,92.43
2023-04-26T05:14:04.625Z,92.22
2023-04-26T05:15:37.187Z,92.38
2023-04-26T05:17:09.357Z,92.01
2023-04-26T05:18:41.817Z,91.56
2023-04-26T05:20:15.174Z,90.91
2023-04-26T05:21:47.388Z,92.10
2023-04-26T05:23:19.546Z,92.22
2023-04-26T05:24:51.810Z,91.34
2023-04-26T05:26:23.890Z,91.38
2023-04-26T05:27:55.988Z,91.57
2023-04-26T05:29:34.074Z,92.10
2023-04-26T05:31:06.365Z,92.33
2023-04-26T05:32:38.560Z,92.28
2023-04-26T05:34:10.772Z,92.65
2023-04-26T05:35:42.889Z,92.22
2023-04-26T05:37:15.057Z,91.59
2023-04-26T05:38:47.191Z,90.75
2023-04-26T05:40:19.319Z,90.15
2023-04-26T05:41:51.827Z,89.03
2023-04-26T05:43:24.006Z,87.68
2023-04-26T05:44:59.561Z,86.91
2023-04-26T05:46:31.855Z,86.85
2023-04-26T05:48:04.115Z,86.50
2023-04-26T05:49:36.590Z,86.70
2023-04-26T05:51:08.683Z,86.82
2023-04-26T05:52:40.826Z,86.70
2023-04-26T05:54:14.054Z,85.21
2023-04-26T05:55:46.414Z,82.51
2023-04-26T05:57:19.428Z,79.80
2023-04-26T05:58:51.820Z,77.45
2023-04-26T06:00:24.165Z,77.75
2023-04-26T06:01:56.461Z,77.83
2023-04-26T06:03:28.939Z,76.12
2023-04-26T06:05:01.814Z,75.00
2023-04-26T06:06:34.130Z,71.54
2023-04-26T06:08:06.544Z,72.56
2023-04-26T06:09:38.735Z,72.34
2023-04-26T06:11:10.842Z,72.82
2023-04-26T06:12:43.232Z,72.51
2023-04-26T06:14:29.432Z,71.92
2023-04-26T06:16:03.045Z,67.48
2023-04-26T06:17:35.185Z,67.66
2023-04-26T06:19:07.354Z,68.87
2023-04-26T06:20:39.518Z,68.68
2023-04-26T06:22:11.823Z,67.75
2023-04-26T06:23:43.926Z,67.26
2023-04-26T06:25:16.882Z,65.23
2023-04-26T06:26:48.996Z,64.86
2023-04-26T06:28:21.199Z,61.04
2023-04-26T06:29:53.296Z,62.41
2023-04-26T06:31:25.495Z,62.68
2023-04-26T06:33:00.491Z,59.34
2023-04-26T06:34:32.719Z,60.70
2023-04-26T06:36:05.120Z,61.12
2023-04-26T06:37:37.953Z,61.61
2023-04-26T06:39:09.998Z,62.15
2023-04-26T06:40:42.125Z,60.66
2023-04-26T06:42:14.251Z,57.86
2023-04-26T06:43:46.470Z,58.33
2023-04-26T06:45:19.288Z,58.51
2023-04-26T06:46:55.006Z,58.28
2023-04-26T06:48:29.453Z,58.02
2023-04-26T06:50:01.765Z,58.24
2023-04-26T06:51:33.854Z,58.58
2023-04-26T06:53:06.244Z,58.30
2023-04-26T06:54:46.298Z,57.40
2023-04-26T06:56:26.211Z,57.45
2023-04-26T06:57:58.390Z,57.21
2023-04-26T06:59:30.526Z,57.21
2023-04-26T07:01:02.993Z,57.63
2023-04-26T07:02:35.160Z,55.87
2023-04-26T07:04:08.682Z,57.44
2023-04-26T07:05:41.681Z,57.80
2023-04-26T07:07:14.910Z,57.20
2023-04-26T07:08:47.105Z,54.97
2023-04-26T07:10:19.290Z,56.31
2023-04-26T07:11:51.395Z,56.38
2023-04-26T07:13:23.604Z,56.07
2023-04-26T07:14:56.087Z,53.43
2023-04-26T07:16:28.324Z,54.53
2023-04-26T07:18:00.727Z,52.05
2023-04-26T07:19:32.972Z,52.26
2023-04-26T07:21:05.083Z,51.57
2023-04-26T07:22:37.187Z,50.94
2023-04-26T07:24:09.387Z,51.26
2023-04-26T07:25:41.698Z,52.05
2023-04-26T07:27:13.780Z,52.78
2023-04-26T07:28:46.029Z,52.16
2023-04-26T07:30:18.271Z,51.68
2023-04-26T07:31:50.570Z,50.05
2023-04-26T07:33:23.136Z,47.28
2023-04-26T07:34:55.419Z,48.56
2023-04-26T07:36:28.216Z,48.89
2023-04-26T07:38:00.427Z,49.04
2023-04-26T07:39:32.599Z,48.31
2023-04-26T07:41:05.374Z,48.88
2023-04-26T07:42:37.492Z,49.67
2023-04-26T07:44:10.857Z,49.36
2023-04-26T07:45:43.149Z,47.82
2023-04-26T07:47:15.472Z,47.56
2023-04-26T07:48:47.604Z,47.18
2023-04-26T07:50:19.856Z,48.37
2023-04-26T07:51:56.864Z,49.30
2023-04-26T07:53:29.055Z,48.73
2023-04-26T07:55:01.333Z,49.19
2023-04-26T07:56:33.444Z,49.34
2023-04-26T07:58:05.707Z,50.21
2023-04-26T07:59:37.850Z,49.21
2023-04-26T08:01:12.022Z,49.09
2023-04-26T08:02:45.617Z,49.36
2023-04-26T08:04:19.638Z,48.46
2023-04-26T08:05:51.947Z,49.21
2023-04-26T08:07:24.239Z,49.54
2023-04-26T08:08:56.343Z,48.99
2023-04-26T08:10:28.510Z,47.39
2023-04-26T08:12:00.753Z,47.43
2023-04-26T08:13:32.914Z,47.61
2023-04-26T08:15:05.978Z,48.25
2023-04-26T08:16:38.128Z,48.24
2023-04-26T08:18:10.334Z,48.21
2023-04-26T08:19:42.669Z,48.34
2023-04-26T08:21:15.630Z,46.35
2023-04-26T08:22:47.798Z,47.24
2023-04-26T08:24:19.893Z,47.20
2023-04-26T08:25:52.238Z,47.06
2023-04-26T08:29:08.145Z,46.38
2023-04-26T08:30:40.507Z,46.49
2023-04-26T08:32:12.745Z,47.10
2023-04-26T08:33:44.830Z,47.44
2023-04-26T08:35:17.053Z,48.34
2023-04-26T08:36:49.134Z,48.78
2023-04-26T08:38:23.058Z,48.31
2023-04-26T08:39:55.194Z,48.16
2023-04-26T08:41:28.097Z,47.86
2023-04-26T08:43:00.292Z,46.54
2023-04-26T08:44:34.449Z,45.51
2023-04-26T08:46:09.283Z,45.19
2023-04-26T08:48:04.852Z,46.20
2023-04-26T08:49:45.624Z,46.75
2023-04-26T08:51:18.523Z,48.31
2023-04-26T08:52:52.723Z,45.72
2023-04-26T08:54:25.758Z,45.95
2023-04-26T08:55:57.926Z,46.58
2023-04-26T08:57:33.315Z,46.37
2023-04-26T08:59:05.718Z,46.00
2023-04-26T09:00:37.910Z,46.24
2023-04-26T09:02:11.573Z,47.22
2023-04-26T09:03:43.936Z,46.86
2023-04-26T09:05:16.333Z,47.74
2023-04-26T09:06:49.640Z,48.15
2023-04-26T09:08:22.529Z,46.49
2023-04-26T09:09:55.463Z,47.60
2023-04-26T09:11:27.674Z,46.67
2023-04-26T09:13:00.072Z,45.74
2023-04-26T09:14:32.221Z,47.12
2023-04-26T09:16:05.239Z,47.42
2023-04-26T09:17:42.332Z,47.55
2023-04-26T09:19:14.469Z,48.82
2023-04-26T09:20:47.006Z,48.55
2023-04-26T09:22:32.324Z,46.80
2023-04-26T09:24:05.221Z,46.50
2023-04-26T09:25:38.341Z,47.46
2023-04-26T09:27:10.608Z,47.23
2023-04-26T09:28:43.059Z,48.01
2023-04-26T09:30:18.794Z,49.83
2023-04-26T09:33:23.685Z,48.51
2023-04-26T09:34:56.130Z,48.53
2023-04-26T09:36:28.623Z,46.36
2023-04-26T09:38:12.807Z,47.80
2023-04-26T09:39:45.999Z,45.10
2023-04-26T09:41:18.162Z,46.10
2023-04-26T09:43:01.576Z,44.58
2023-04-26T09:44:34.506Z,46.11
2023-04-26T09:46:07.499Z,46.55
2023-04-26T09:47:39.723Z,46.08
2023-04-26T09:49:11.919Z,47.40
2023-04-26T09:50:46.667Z,45.38
2023-04-26T09:52:19.770Z,45.76
2023-04-26T09:53:52.167Z,46.27
2023-04-26T09:55:34.754Z,46.21
2023-04-26T09:57:07.777Z,46.38
2023-04-26T09:58:41.034Z,45.47
2023-04-26T10:00:14.793Z,45.90
2023-04-26T10:01:53.385Z,46.59
2023-04-26T10:03:27.218Z,46.96
2023-04-26T10:05:00.592Z,46.99
2023-04-26T10:06:33.419Z,44.58
2023-04-26T10:08:07.134Z,46.03
2023-04-26T10:09:39.395Z,46.27
2023-04-26T10:11:13.129Z,44.50
2023-04-26T10:12:45.410Z,45.56
2023-04-26T10:14:17.651Z,45.07
2023-04-26T10:15:51.740Z,43.88
2023-04-26T10:17:26.981Z,45.61
2023-04-26T10:18:59.811Z,43.56
2023-04-26T10:20:32.935Z,43.36
2023-04-26T10:22:07.676Z,42.97
2023-04-26T10:23:41.317Z,42.58
2023-04-26T10:25:13.917Z,42.20
2023-04-26T10:26:57.758Z,43.90
2023-04-26T10:28:45.055Z,42.64
2023-04-26T10:30:19.150Z,43.63
2023-04-26T10:32:06.417Z,43.83
2023-04-26T10:33:38.860Z,43.31
2023-04-26T10:35:14.433Z,42.49
2023-04-26T10:37:18.980Z,41.70
2023-04-26T10:39:30.400Z,44.32
2023-04-26T10:41:33.357Z,43.05
2023-04-26T10:43:15.337Z,42.46
2023-04-26T10:44:47.552Z,42.63
2023-04-26T10:46:54.728Z,41.84
2023-04-26T10:48:31.235Z,41.48
2023-04-26T10:50:11.193Z,41.67
2023-04-26T10:52:10.892Z,42.68
2023-04-26T10:53:48.561Z,43.30
2023-04-26T10:55:42.208Z,41.91
2023-04-26T10:57:15.248Z,42.61
2023-04-26T10:58:47.408Z,42.83
2023-04-26T11:00:31.930Z,42.00
2023-04-26T11:02:04.971Z,42.98
2023-04-26T11:03:38.318Z,42.67
2023-04-26T11:05:10.837Z,41.41
2023-04-26T11:06:56.154Z,40.96
2023-04-26T11:08:32.583Z,40.68
2023-04-26T11:10:10.723Z,39.62
2023-04-26T11:11:56.050Z,40.15
2023-04-26T11:13:31.275Z,39.57
2023-04-26T11:15:03.643Z,40.70
2023-04-26T11:16:35.830Z,41.67
2023-04-26T11:18:08.267Z,40.91
2023-04-26T11:19:42.120Z,39.68
2023-04-26T11:21:18.354Z,40.40
2023-04-26T11:22:50.542Z,40.33
2023-04-26T11:24:27.259Z,40.49
2023-04-26T11:26:00.648Z,40.58
2023-04-26T11:27:32.645Z,42.21
2023-04-26T11:29:05.042Z,41.80
2023-04-26T11:30:37.316Z,43.05
2023-04-26T11:32:09.663Z,43.18
2023-04-26T11:33:42.344Z,40.79
2023-04-26T11:35:16.192Z,41.49
2023-04-26T11:36:48.380Z,39.61
2023-04-26T11:38:27.392Z,40.58
2023-04-26T11:39:59.560Z,41.27
2023-04-26T11:41:32.354Z,40.79
2023-04-26T11:43:09.008Z,42.64
2023-04-26T11:44:41.686Z,43.81
2023-04-26T11:46:13.785Z,41.81
2023-04-26T11:47:47.090Z,40.54
2023-04-26T11:49:19.097Z,41.33
2023-04-26T11:50:51.472Z,40.36
2023-04-26T11:52:23.732Z,40.50
2023-04-26T11:53:55.873Z,40.38
2023-04-26T11:55:37.838Z,39.90
2023-04-26T11:57:18.172Z,42.74
2023-04-26T11:58:52.395Z,40.86
2023-04-26T12:01:59.167Z,42.29
2023-04-26T12:03:38.285Z,41.00
2023-04-26T12:05:11.032Z,40.69
2023-04-26T12:06:44.535Z,41.25
2023-04-26T12:08:18.683Z,41.44
2023-04-26T12:09:50.896Z,40.96
2023-04-26T12:11:23.113Z,41.16
2023-04-26T12:12:59.326Z,41.58
2023-04-26T12:14:41.870Z,42.46
2023-04-26T12:16:25.607Z,41.50
2023-04-26T12:18:07.823Z,41.45
2023-04-26T12:19:44.387Z,40.91
2023-04-26T12:21:17.532Z,41.14
2023-04-26T12:23:18.495Z,40.80
2023-04-26T12:24:50.562Z,40.54
2023-04-26T12:26:22.695Z,41.35
2023-04-26T12:27:54.868Z,42.31
2023-04-26T12:29:29.275Z,42.83
2023-04-26T12:31:01.949Z,41.46
2023-04-26T12:32:34.077Z,41.44
2023-04-26T12:34:06.261Z,41.43
2023-04-26T12:35:38.535Z,41.22
2023-04-26T12:37:11.200Z,40.97
2023-04-26T12:38:43.347Z,41.24
2023-04-26T12:40:16.573Z,40.64
2023-04-26T12:41:49.627Z,40.18
2023-04-26T12:43:24.526Z,40.48
2023-04-26T12:44:56.654Z,40.98
2023-04-26T12:46:28.822Z,40.56
2023-04-26T12:48:01.024Z,40.97
2023-04-26T12:49:33.159Z,42.04
2023-04-26T12:51:05.538Z,42.24
2023-04-26T12:52:37.656Z,42.56
2023-04-26T12:54:09.775Z,43.12
2023-04-26T12:55:42.467Z,42.13
2023-04-26T12:57:15.026Z,42.48
2023-04-26T13:00:19.294Z,43.00
2023-04-26T13:01:51.545Z,42.06
2023-04-26T13:03:23.951Z,41.97
2023-04-26T13:04:56.815Z,40.97
2023-04-26T13:06:29.117Z,41.04
2023-04-26T13:08:02.412Z,41.02
2023-04-26T13:09:34.385Z,41.31
2023-04-26T13:11:06.489Z,41.51
2023-04-26T13:12:39.876Z,40.74
2023-04-26T13:14:11.920Z,40.79
2023-04-26T13:15:44.136Z,40.74
2023-04-26T13:17:16.285Z,41.35
2023-04-26T13:18:49.504Z,41.84
2023-04-26T13:20:22.704Z,41.62
2023-04-26T13:21:55.782Z,41.67
2023-04-26T13:23:27.882Z,41.81
2023-04-26T13:25:00.056Z,41.79
2023-04-26T13:26:32.460Z,41.74
2023-04-26T13:28:04.862Z,41.82
2023-04-26T13:29:42.912Z,41.84
2023-04-26T13:31:17.719Z,41.17
2023-04-26T13:32:49.920Z,41.52
2023-04-26T13:34:22.452Z,41.28
2023-04-26T13:35:54.595Z,41.86
2023-04-26T13:37:27.365Z,41.78
2023-04-26T13:38:59.971Z,41.75
2023-04-26T13:40:32.016Z,41.19
2023-04-26T13:42:06.189Z,41.37
2023-04-26T13:43:38.382Z,42.40
2023-04-26T13:45:11.051Z,41.09
2023-04-26T13:46:43.780Z,41.20
2023-04-26T13:48:16.235Z,40.84
2023-04-26T13:49:48.653Z,40.55
2023-04-26T13:51:20.851Z,41.47
2023-04-26T13:52:53.425Z,41.04
2023-04-26T13:54:28.480Z,41.55
2023-04-26T13:56:00.657Z,40.77
2023-04-26T13:57:32.851Z,40.45
2023-04-26T13:59:06.619Z,41.64
2023-04-26T14:00:38.860Z,41.18
2023-04-26T14:02:11.097Z,40.50
2023-04-26T14:03:43.414Z,39.46
2023-04-26T14:05:17.122Z,39.74
2023-04-26T14:06:49.382Z,39.39
2023-04-26T14:08:21.638Z,39.91
2023-04-26T14:09:54.079Z,40.43
2023-04-26T14:11:26.512Z,39.96
2023-04-26T14:12:58.645Z,41.09
2023-04-26T14:14:31.101Z,40.67
2023-04-26T14:16:03.289Z,39.51
2023-04-26T14:17:35.508Z,40.06
2023-04-26T14:19:07.738Z,40.32
2023-04-26T14:20:39.869Z,40.49
2023-04-26T14:22:13.374Z,40.29
2023-04-26T14:23:45.484Z,41.11
2023-04-26T14:25:17.908Z,41.22
2023-04-26T14:26:50.140Z,41.20
2023-04-26T14:28:22.356Z,40.43
2023-04-26T14:29:54.545Z,40.85
2023-04-26T14:31:28.437Z,39.65
2023-04-26T14:33:00.740Z,39.95
2023-04-26T14:34:32.929Z,39.03
2023-04-26T14:36:05.349Z,40.39
2023-04-26T14:37:37.851Z,40.68
2023-04-26T14:39:10.192Z,40.48
2023-04-26T14:40:42.516Z,40.60
2023-04-26T14:42:14.624Z,40.37
2023-04-26T14:43:47.050Z,39.67
2023-04-26T14:45:19.729Z,39.96
2023-04-26T14:46:53.509Z,40.26
2023-04-26T14:48:26.417Z,40.52
2023-04-26T14:49:58.659Z,40.60
2023-04-26T14:51:30.771Z,40.94
2023-04-26T14:53:02.846Z,41.04
2023-04-26T14:54:41.972Z,40.92
2023-04-26T14:56:14.130Z,40.88
2023-04-26T14:57:46.245Z,40.86
2023-04-26T14:59:18.651Z,40.92
2023-04-26T15:00:50.995Z,40.69
2023-04-26T15:02:23.187Z,41.42
2023-04-26T15:03:57.076Z,40.88
2023-04-26T15:05:32.352Z,40.96
2023-04-26T15:07:04.759Z,41.18
2023-04-26T15:08:37.610Z,40.91
2023-04-26T15:10:09.956Z,41.12
2023-04-26T15:11:42.072Z,41.31
2023-04-26T15:13:14.257Z,41.55
2023-04-26T15:14:46.349Z,41.71
2023-04-26T15:16:18.517Z,41.74
2023-04-26T15:17:51.115Z,42.07
2023-04-26T15:19:23.467Z,41.76
2023-04-26T15:20:55.593Z,41.96
2023-04-26T15:22:27.781Z,41.38
2023-04-26T15:23:59.947Z,41.36
2023-04-26T15:25:35.318Z,41.43
2023-04-26T15:27:07.496Z,41.28
2023-04-26T15:28:39.612Z,41.54
2023-04-26T15:30:12.491Z,41.60
2023-04-26T15:31:44.697Z,41.21
2023-04-26T15:33:17.560Z,41.47
2023-04-26T15:34:50.171Z,41.70
2023-04-26T15:36:22.781Z,41.83
2023-04-26T15:37:55.168Z,42.01
2023-04-26T15:39:27.329Z,42.47
2023-04-26T15:41:02.637Z,42.60
2023-04-26T15:42:34.759Z,42.89
2023-04-26T15:44:06.860Z,42.85
2023-04-26T15:45:38.999Z,43.26
2023-04-26T15:47:11.159Z,43.14
2023-04-26T15:48:43.292Z,43.11
2023-04-26T15:50:15.553Z,43.34
2023-04-26T15:51:47.689Z,43.46
2023-04-26T15:53:21.953Z,43.57
2023-04-26T15:54:54.114Z,43.61
2023-04-26T15:56:27.216Z,43.45
2023-04-26T15:57:59.516Z,43.50
2023-04-26T20:37:36.409Z,53.05
2023-04-26T20:39:10.199Z,52.79
2023-04-26T20:40:42.516Z,53.12
2023-04-26T20:42:14.823Z,53.20
2023-04-26T20:43:47.009Z,52.79
2023-04-26T20:45:19.230Z,53.11
2023-04-26T20:46:51.592Z,53.16
2023-04-26T20:48:24.533Z,53.27
2023-04-26T20:49:57.053Z,53.75
2023-04-26T20:51:29.207Z,53.71
2023-04-26T20:53:01.546Z,53.63
2023-04-26T20:54:33.940Z,53.97
2023-04-26T20:56:06.443Z,53.82
2023-04-26T20:57:39.502Z,53.63
2023-04-26T20:59:12.196Z,53.80
2023-04-26T21:00:44.514Z,54.15
2023-04-26T21:02:17.022Z,54.30
2023-04-26T21:03:49.482Z,54.44
2023-04-26T21:05:22.169Z,54.78
2023-04-26T21:06:54.409Z,54.87
2023-04-26T21:08:26.618Z,54.70
2023-04-26T21:09:58.685Z,54.64
2023-04-26T21:11:30.884Z,54.85
2023-04-26T21:13:03.747Z,54.70
2023-04-26T21:14:35.811Z,54.96
2023-04-26T21:16:08.099Z,55.09
2023-04-26T21:17:41.135Z,54.84
2023-04-26T21:19:13.464Z,55.17
2023-04-26T21:20:45.801Z,55.20
2023-04-26T21:22:17.929Z,55.06
2023-04-26T21:23:50.144Z,55.32
2023-04-26T21:25:23.186Z,55.22
2023-04-26T21:26:55.342Z,55.27
2023-04-26T21:28:27.527Z,55.37
2023-04-26T21:29:59.686Z,55.60
2023-04-26T21:31:31.970Z,55.60
2023-04-26T21:33:04.347Z,55.37
2023-04-26T21:34:37.667Z,55.44
2023-04-26T21:36:09.983Z,55.31
2023-04-26T21:37:42.104Z,55.69
2023-04-26T21:39:15.030Z,55.20
2023-04-26T21:40:47.121Z,55.44
2023-04-26T21:42:19.342Z,55.20
2023-04-26T21:43:52.708Z,55.40
2023-04-26T21:45:24.679Z,55.13
2023-04-26T21:46:57.042Z,55.06
2023-04-26T21:48:29.229Z,55.03
2023-04-26T21:50:01.620Z,54.92
2023-04-26T21:51:33.944Z,54.38
2023-04-26T21:53:06.698Z,54.82
2023-04-26T21:54:38.954Z,54.91
2023-04-26T21:56:11.225Z,54.86
2023-04-26T21:57:43.416Z,54.90
2023-04-26T21:59:15.758Z,54.46
2023-04-26T22:00:48.256Z,54.90
2023-04-26T22:02:20.597Z,54.81
2023-04-26T22:03:52.902Z,54.95
2023-04-26T22:05:26.290Z,55.01
2023-04-26T22:06:58.553Z,54.37
2023-04-26T22:08:30.986Z,54.72
2023-04-26T22:10:03.466Z,54.23
2023-04-26T22:11:35.737Z,54.07
2023-04-26T22:13:07.986Z,54.62
2023-04-26T22:14:40.106Z,54.50
2023-04-26T22:16:12.340Z,54.32
2023-04-26T22:17:44.643Z,54.51
2023-04-26T22:19:16.854Z,54.34
2023-04-26T22:20:49.150Z,54.51
2023-04-26T22:22:21.343Z,54.02
2023-04-26T22:23:53.452Z,54.18
2023-04-26T22:25:25.649Z,54.09
2023-04-26T22:26:57.837Z,53.90
2023-04-26T22:28:29.922Z,53.78
2023-04-26T22:30:12.368Z,53.43
2023-04-26T22:31:52.935Z,53.20
2023-04-26T22:33:25.216Z,53.36
2023-04-26T22:34:57.442Z,53.07
2023-04-26T22:36:29.622Z,53.19
2023-04-26T22:38:01.776Z,53.15
2023-04-26T22:39:33.962Z,53.29
2023-04-26T22:41:07.661Z,53.32
2023-04-26T22:42:39.719Z,53.27
2023-04-26T22:44:11.792Z,53.19
2023-04-26T22:45:44.021Z,52.87
2023-04-26T22:47:18.535Z,52.87
2023-04-26T22:48:50.844Z,52.70
2023-04-26T22:50:23.131Z,52.62
2023-04-26T22:52:07.791Z,52.65
2023-04-26T22:53:43.962Z,52.35
2023-04-26T22:55:16.414Z,52.15
2023-04-26T22:56:48.626Z,51.61
2023-04-26T22:58:21.017Z,51.64
2023-04-26T22:59:53.183Z,51.40
2023-04-26T23:01:25.302Z,51.51
2023-04-26T23:03:00.531Z,51.49
2023-04-26T23:04:32.802Z,51.32
2023-04-26T23:06:05.784Z,51.09
2023-04-26T23:07:39.097Z,51.11
2023-04-26T23:09:11.881Z,51.17
2023-04-26T23:10:44.299Z,50.72
2023-04-26T23:12:24.075Z,50.82
2023-04-26T23:13:56.749Z,51.08
2023-04-26T23:15:29.028Z,50.64
2023-04-26T23:17:01.326Z,50.63
2023-04-26T23:18:34.600Z,50.80
2023-04-26T23:20:13.594Z,50.61
2023-04-26T23:21:45.922Z,50.87
2023-04-26T23:23:18.055Z,50.50
2023-04-26T23:24:50.161Z,50.46
2023-04-26T23:26:22.860Z,50.27
2023-04-26T23:27:54.930Z,49.72
2023-04-26T23:29:27.039Z,49.98
2023-04-26T23:31:02.186Z,49.38
2023-04-26T23:32:34.321Z,49.69
2023-04-26T23:34:06.469Z,50.01
2023-04-26T23:35:42.776Z,49.68
2023-04-26T23:37:14.911Z,49.48
2023-04-26T23:38:46.986Z,49.55
2023-04-26T23:40:19.397Z,49.24
2023-04-26T23:41:51.573Z,49.44
2023-04-26T23:43:23.692Z,49.32
2023-04-26T23:44:55.907Z,49.29
2023-04-26T23:46:28.077Z,49.70
2023-04-26T23:48:00.346Z,49.34
2023-04-26T23:49:32.497Z,49.76
2023-04-26T23:51:05.295Z,49.32
2023-04-26T23:52:37.419Z,49.81
2023-04-26T23:54:09.654Z,50.06
2023-04-26T23:55:41.840Z,49.31
2023-04-26T23:57:13.932Z,49.48
2023-04-26T23:58:46.051Z,49.27
